createdAt,value
2018-07-05T00:01:50.673Z,100823.73
2018-07-05T00:04:31.539Z,100825.08
2018-07-05T00:07:11.891Z,100822.38
2018-07-05T00:09:52.503Z,100816.86
2018-07-05T00:12:33.099Z,100819.59
2018-07-05T00:15:13.405Z,100823.58
2018-07-05T00:17:53.600Z,100822.31
2018-07-05T00:20:34.011Z,100823.17
2018-07-05T00:23:14.420Z,100819.42
2018-07-05T00:25:55.111Z,100821.86
2018-07-05T00:28:35.480Z,100819.98
2018-07-05T00:31:15.736Z,100821.63
2018-07-05T00:33:56.079Z,100825.44
2018-07-05T00:36:36.317Z,100836.20
2018-07-05T00:39:16.644Z,100846.28
2018-07-05T00:41:56.907Z,100843.86
2018-07-05T00:44:37.073Z,100840.75
2018-07-05T00:47:17.296Z,100834.84
2018-07-05T00:49:57.604Z,100838.69
2018-07-05T00:52:37.892Z,100836.78
2018-07-05T00:55:18.180Z,100835.88
2018-07-05T00:57:58.508Z,100832.84
2018-07-05T01:00:38.750Z,100826.70
2018-07-05T01:03:19.217Z,100825.84
2018-07-05T01:05:59.773Z,100824.99
2018-07-05T01:08:40.043Z,100830.22
2018-07-05T01:11:20.281Z,100831.50
2018-07-05T01:14:00.496Z,100831.80
2018-07-05T01:16:40.776Z,100829.73
2018-07-05T01:19:21.156Z,100831.94
2018-07-05T01:22:01.405Z,100836.89
2018-07-05T01:24:41.611Z,100844.39
2018-07-05T01:27:21.947Z,100852.60
2018-07-05T01:30:02.287Z,100844.05
2018-07-05T01:32:42.530Z,100843.68
2018-07-05T01:35:22.875Z,100834.40
2018-07-05T01:38:03.198Z,100835.70
2018-07-05T01:40:43.453Z,100839.30
2018-07-05T01:43:23.849Z,100832.16
2018-07-05T01:46:04.064Z,100817.33
2018-07-05T01:48:44.459Z,100815.50
2018-07-05T01:51:24.866Z,100827.59
2018-07-05T01:54:05.151Z,100835.28
2018-07-05T01:56:45.446Z,100837.01
2018-07-05T01:59:25.798Z,100831.48
2018-07-05T02:02:06.263Z,100834.66
2018-07-05T02:04:47.067Z,100831.92
2018-07-05T02:07:27.621Z,100839.55
2018-07-05T02:10:07.975Z,100843.36
2018-07-05T02:12:48.283Z,100837.72
2018-07-05T02:15:28.679Z,100844.72
2018-07-05T02:18:08.903Z,100837.92
2018-07-05T02:20:49.125Z,100836.11
2018-07-05T02:23:29.680Z,100844.83
2018-07-05T02:26:09.893Z,100841.70
2018-07-05T02:28:50.266Z,100832.79
2018-07-05T02:31:30.611Z,100827.56
2018-07-05T02:34:11.938Z,100823.19
2018-07-05T02:36:59.076Z,100829.05
2018-07-05T02:39:49.063Z,100821.91
2018-07-05T02:45:16.031Z,100820.78
2018-07-05T02:47:56.411Z,100824.09
2018-07-05T02:50:36.910Z,100830.23
2018-07-05T02:53:17.408Z,100830.31
2018-07-05T02:55:57.610Z,100830.59
2018-07-05T02:58:38.014Z,100825.78
2018-07-05T03:01:18.245Z,100827.75
2018-07-05T03:03:58.497Z,100825.34
2018-07-05T03:06:38.748Z,100829.03
2018-07-05T03:09:18.884Z,100823.86
2018-07-05T03:11:59.230Z,100826.33
2018-07-05T03:14:39.483Z,100822.58
2018-07-05T03:17:19.839Z,100822.30
2018-07-05T03:19:59.910Z,100823.44
2018-07-05T03:22:40.212Z,100825.27
2018-07-05T03:25:20.544Z,100822.44
2018-07-05T03:28:00.893Z,100821.62
2018-07-05T03:30:41.337Z,100824.98
2018-07-05T03:33:21.713Z,100817.05
2018-07-05T03:36:01.898Z,100817.91
2018-07-05T03:38:42.450Z,100819.87
2018-07-05T03:41:22.690Z,100817.77
2018-07-05T03:44:03.030Z,100824.14
2018-07-05T03:46:43.449Z,100828.80
2018-07-05T03:49:23.691Z,100828.93
2018-07-05T03:52:04.028Z,100825.53
2018-07-05T03:54:44.479Z,100821.50
2018-07-05T03:57:24.845Z,100816.84
2018-07-05T04:00:05.156Z,100819.19
2018-07-05T04:02:45.561Z,100827.38
2018-07-05T04:05:26.014Z,100838.33
2018-07-05T04:08:06.303Z,100829.83
2018-07-05T04:10:46.580Z,100834.86
2018-07-05T04:13:26.759Z,100832.00
2018-07-05T04:16:07.093Z,100840.81
2018-07-05T04:18:47.291Z,100843.98
2018-07-05T04:21:27.651Z,100841.39
2018-07-05T04:24:08.040Z,100841.80
2018-07-05T04:26:48.173Z,100839.52
2018-07-05T04:29:28.603Z,100831.99
2018-07-05T04:32:09.058Z,100834.09
2018-07-05T04:34:57.087Z,100836.05
2018-07-05T04:37:40.853Z,100831.67
2018-07-05T04:40:21.172Z,100830.88
2018-07-05T04:43:01.559Z,100837.38
2018-07-05T04:45:42.057Z,100841.41
2018-07-05T04:48:22.507Z,100848.79
2018-07-05T04:51:02.840Z,100848.44
2018-07-05T04:53:43.184Z,100839.75
2018-07-05T04:56:23.507Z,100841.55
2018-07-05T04:59:03.668Z,100847.77
2018-07-05T05:01:44.071Z,100842.94
2018-07-05T05:04:24.437Z,100856.43
2018-07-05T05:07:04.783Z,100856.89
2018-07-05T05:09:45.100Z,100852.35
2018-07-05T05:12:25.426Z,100855.81
2018-07-05T05:15:05.787Z,100848.61
2018-07-05T05:17:46.245Z,100851.82
2018-07-05T05:20:26.569Z,100864.31
2018-07-05T05:23:06.965Z,100871.85
2018-07-05T05:25:47.200Z,100869.98
2018-07-05T05:28:27.522Z,100865.92
2018-07-05T05:31:07.845Z,100867.72
2018-07-05T05:33:48.139Z,100873.20
2018-07-05T05:36:28.417Z,100873.09
2018-07-05T05:39:08.754Z,100890.14
2018-07-05T05:41:48.892Z,100895.05
2018-07-05T05:44:29.262Z,100896.91
2018-07-05T05:47:09.535Z,100895.07
2018-07-05T05:49:50.178Z,100894.56
2018-07-05T05:52:32.190Z,100900.80
2018-07-05T05:55:13.286Z,100905.27
2018-07-05T05:57:54.121Z,100903.52
2018-07-05T06:00:34.578Z,100898.94
2018-07-05T06:03:14.892Z,100886.86
2018-07-05T06:05:55.391Z,100878.00
2018-07-05T06:08:35.867Z,100869.27
2018-07-05T06:11:16.329Z,100874.00
2018-07-05T06:13:56.631Z,100875.41
2018-07-05T06:16:36.911Z,100878.09
2018-07-05T06:19:17.351Z,100877.72
2018-07-05T06:21:58.631Z,100882.47
2018-07-05T06:24:39.058Z,100884.81
2018-07-05T06:27:19.418Z,100887.50
2018-07-05T06:29:59.779Z,100891.10
2018-07-05T06:32:40.067Z,100889.67
2018-07-05T06:35:20.368Z,100879.00
2018-07-05T06:38:00.771Z,100887.27
2018-07-05T06:40:41.159Z,100888.76
2018-07-05T06:43:21.384Z,100894.48
2018-07-05T06:46:01.589Z,100897.91
2018-07-05T06:48:41.968Z,100901.23
2018-07-05T06:51:22.529Z,100908.37
2018-07-05T06:54:02.837Z,100909.16
2018-07-05T06:56:48.916Z,100905.79
2018-07-05T06:59:31.812Z,100902.24
2018-07-05T07:02:12.174Z,100914.69
2018-07-05T07:04:52.535Z,100915.35
2018-07-05T07:07:32.870Z,100919.53
2018-07-05T07:10:13.194Z,100917.03
2018-07-05T07:12:53.654Z,100919.44
2018-07-05T07:15:34.103Z,100922.98
2018-07-05T07:18:14.472Z,100935.09
2018-07-05T07:20:54.895Z,100938.98
2018-07-05T07:23:35.162Z,100940.78
2018-07-05T07:26:15.530Z,100939.27
2018-07-05T07:28:55.939Z,100934.04
2018-07-05T07:31:36.305Z,100941.66
2018-07-05T07:34:16.782Z,100947.02
2018-07-05T07:36:57.152Z,100942.39
2018-07-05T07:39:37.471Z,100947.86
2018-07-05T07:42:05.398Z,100948.06
2018-07-05T07:44:33.300Z,100953.94
2018-07-05T07:47:01.230Z,100947.80
2018-07-05T07:49:29.137Z,100949.73
2018-07-05T07:51:57.074Z,100943.18
2018-07-05T07:54:24.984Z,100945.86
2018-07-05T07:56:52.930Z,100944.33
2018-07-05T07:59:20.864Z,100941.33
2018-07-05T08:01:48.812Z,100946.50
2018-07-05T08:04:16.764Z,100942.91
2018-07-05T08:06:44.728Z,100943.30
2018-07-05T08:09:12.633Z,100934.33
2018-07-05T08:11:40.555Z,100941.67
2018-07-05T08:14:08.759Z,100942.56
2018-07-05T08:16:36.696Z,100944.58
2018-07-05T08:19:04.603Z,100947.33
2018-07-05T08:21:32.554Z,100945.70
2018-07-05T08:24:00.462Z,100946.00
2018-07-05T08:26:28.389Z,100949.92
2018-07-05T08:28:56.297Z,100939.28
2018-07-05T08:31:24.274Z,100943.22
2018-07-05T08:33:52.199Z,100937.91
2018-07-05T08:36:20.124Z,100940.91
2018-07-05T08:38:48.098Z,100943.53
2018-07-05T08:41:16.046Z,100947.20
2018-07-05T08:43:43.993Z,100940.42
2018-07-05T08:46:11.914Z,100941.63
2018-07-05T08:48:39.904Z,100951.76
2018-07-05T08:51:07.834Z,100945.22
2018-07-05T08:53:35.783Z,100948.20
2018-07-05T08:56:03.737Z,100939.38
2018-07-05T08:58:31.670Z,100943.58
2018-07-05T09:00:59.580Z,100934.63
2018-07-05T09:03:27.522Z,100936.58
2018-07-05T09:05:55.460Z,100940.19
2018-07-05T09:08:23.386Z,100941.06
2018-07-05T09:10:51.326Z,100932.67
2018-07-05T09:13:19.264Z,100932.12
2018-07-05T09:15:47.214Z,100924.42
2018-07-05T09:18:15.201Z,100932.27
2018-07-05T09:20:43.243Z,100935.98
2018-07-05T09:23:11.227Z,100933.86
2018-07-05T09:25:39.135Z,100937.75
2018-07-05T09:28:07.042Z,100938.23
2018-07-05T09:30:35.003Z,100942.19
2018-07-05T09:33:02.968Z,100946.59
2018-07-05T09:35:30.877Z,100942.39
2018-07-05T09:37:58.791Z,100947.21
2018-07-05T09:40:26.738Z,100945.34
2018-07-05T09:42:54.644Z,100943.17
2018-07-05T09:45:22.681Z,100941.57
2018-07-05T09:47:50.591Z,100935.95
2018-07-05T09:50:18.549Z,100940.03
2018-07-05T09:52:46.488Z,100936.41
2018-07-05T09:55:14.422Z,100935.23
2018-07-05T09:57:42.342Z,100934.16
2018-07-05T10:00:11.970Z,100932.43
2018-07-05T10:02:40.704Z,100933.73
2018-07-05T10:05:08.648Z,100933.03
2018-07-05T10:07:36.552Z,100926.16
2018-07-05T10:10:04.498Z,100926.16
2018-07-05T10:12:32.402Z,100930.00
2018-07-05T10:15:00.328Z,100920.88
2018-07-05T10:17:28.325Z,100920.21
2018-07-05T10:19:56.298Z,100915.17
2018-07-05T10:22:24.261Z,100912.44
2018-07-05T10:24:52.198Z,100918.70
2018-07-05T10:27:20.150Z,100916.52
2018-07-05T10:30:00.449Z,100911.97
2018-07-05T10:32:40.797Z,100920.05
2018-07-05T10:35:08.744Z,100919.19
2018-07-05T10:37:36.673Z,100918.23
2018-07-05T10:40:16.978Z,100911.02
2018-07-05T10:42:57.436Z,100915.33
2018-07-05T10:45:37.631Z,100913.80
2018-07-05T10:48:17.956Z,100920.08
2018-07-05T10:50:58.213Z,100911.30
2018-07-05T10:53:38.439Z,100917.06
2018-07-05T10:56:18.783Z,100920.42
2018-07-05T10:58:59.171Z,100923.97
2018-07-05T11:01:39.598Z,100916.69
2018-07-05T11:04:19.928Z,100923.09
2018-07-05T11:07:00.246Z,100926.14
2018-07-05T11:09:40.721Z,100927.32
2018-07-05T11:12:21.126Z,100916.16
2018-07-05T11:15:01.428Z,100928.87
2018-07-05T11:17:41.518Z,100923.28
2018-07-05T11:20:21.949Z,100924.09
2018-07-05T11:23:02.270Z,100923.79
2018-07-05T11:25:42.584Z,100928.22
2018-07-05T11:28:22.982Z,100925.17
2018-07-05T11:31:03.292Z,100920.07
2018-07-05T11:33:43.848Z,100924.13
2018-07-05T11:36:24.358Z,100925.75
2018-07-05T11:39:05.836Z,100919.01
2018-07-05T11:41:46.843Z,100921.72
2018-07-05T11:44:27.322Z,100921.05
2018-07-05T11:47:07.691Z,100913.98
2018-07-05T11:49:48.016Z,100911.08
2018-07-05T11:52:28.211Z,100909.84
2018-07-05T11:55:08.342Z,100911.47
2018-07-05T11:57:48.763Z,100908.22
2018-07-05T12:00:29.085Z,100900.12
2018-07-05T12:03:09.459Z,100898.67
2018-07-05T12:05:49.890Z,100899.34
2018-07-05T12:08:30.322Z,100902.88
2018-07-05T12:11:10.556Z,100899.41
2018-07-05T12:13:50.923Z,100900.58
2018-07-05T12:16:31.118Z,100911.02
2018-07-05T12:19:11.625Z,100899.59
2018-07-05T12:21:52.115Z,100908.66
2018-07-05T12:24:32.340Z,100905.13
2018-07-05T12:27:12.591Z,100906.34
2018-07-05T12:29:52.810Z,100908.66
2018-07-05T12:32:33.100Z,100904.95
2018-07-05T12:35:13.480Z,100900.43
2018-07-05T12:37:53.781Z,100903.69
2018-07-05T12:40:34.080Z,100907.66
2018-07-05T12:43:14.508Z,100909.61
2018-07-05T12:45:54.777Z,100916.97
2018-07-05T12:48:34.966Z,100918.27
2018-07-05T12:51:15.320Z,100922.40
2018-07-05T12:53:55.656Z,100918.70
2018-07-05T12:56:36.007Z,100921.72
2018-07-05T12:59:16.249Z,100922.02
2018-07-05T13:01:56.516Z,100919.66
2018-07-05T13:04:36.901Z,100912.55
2018-07-05T13:07:17.231Z,100911.87
2018-07-05T13:09:57.583Z,100911.87
2018-07-05T13:12:37.904Z,100916.90
2018-07-05T13:15:18.186Z,100906.77
2018-07-05T13:17:58.493Z,100916.98
2018-07-05T13:20:38.683Z,100916.32
2018-07-05T13:23:18.923Z,100914.93
2018-07-05T13:25:59.305Z,100915.30
2018-07-05T13:28:39.809Z,100916.11
2018-07-05T13:31:20.158Z,100906.03
2018-07-05T13:34:00.279Z,100910.95
2018-07-05T13:36:40.431Z,100909.12
2018-07-05T13:39:20.844Z,100905.99
2018-07-05T13:42:01.000Z,100906.02
2018-07-05T13:44:41.168Z,100904.76
2018-07-05T13:47:21.353Z,100901.16
2018-07-05T13:50:01.593Z,100906.92
2018-07-05T13:52:41.831Z,100915.32
2018-07-05T13:55:22.105Z,100912.88
2018-07-05T13:58:02.261Z,100917.88
2018-07-05T14:00:42.644Z,100923.50
2018-07-05T14:03:22.725Z,100925.81
2018-07-05T14:06:03.176Z,100920.27
2018-07-05T14:08:43.310Z,100928.66
2018-07-05T14:11:23.619Z,100925.70
2018-07-05T14:14:03.840Z,100921.30
2018-07-05T14:16:44.212Z,100915.67
2018-07-05T14:19:24.545Z,100919.70
2018-07-05T14:22:04.748Z,100916.68
2018-07-05T14:24:45.053Z,100914.24
2018-07-05T14:27:25.359Z,100917.07
2018-07-05T14:30:05.582Z,100923.58
2018-07-05T14:32:45.948Z,100924.44
2018-07-05T14:35:26.390Z,100921.09
2018-07-05T14:38:06.656Z,100914.31
2018-07-05T14:40:47.142Z,100928.78
2018-07-05T14:43:27.461Z,100924.19
2018-07-05T14:46:07.724Z,100930.30
2018-07-05T14:48:47.901Z,100932.61
2018-07-05T14:51:28.302Z,100921.98
2018-07-05T14:54:08.678Z,100930.02
2018-07-05T14:56:48.829Z,100927.61
2018-07-05T14:59:29.198Z,100928.72
2018-07-05T15:02:09.608Z,100926.50
2018-07-05T15:04:49.780Z,100923.81
2018-07-05T15:07:29.958Z,100928.73
2018-07-05T15:10:10.323Z,100916.62
2018-07-05T15:12:50.605Z,100926.03
2018-07-05T15:15:31.002Z,100923.36
2018-07-05T15:18:11.340Z,100922.81
2018-07-05T15:20:51.552Z,100929.84
2018-07-05T15:23:31.948Z,100934.67
2018-07-05T15:26:12.340Z,100927.69
2018-07-05T15:28:52.735Z,100935.59
2018-07-05T15:31:33.281Z,100928.73
2018-07-05T15:34:13.386Z,100932.05
2018-07-05T15:36:53.783Z,100926.08
2018-07-05T15:39:33.918Z,100930.12
2018-07-05T15:42:14.194Z,100925.98
2018-07-05T15:44:54.239Z,100921.97
2018-07-05T15:47:34.484Z,100919.84
2018-07-05T15:50:14.780Z,100929.63
2018-07-05T15:52:55.051Z,100924.63
2018-07-05T15:55:35.439Z,100921.48
2018-07-05T15:58:15.869Z,100923.92
2018-07-05T16:00:56.138Z,100927.31
2018-07-05T16:03:36.464Z,100917.83
2018-07-05T16:06:16.869Z,100909.58
2018-07-05T16:08:57.262Z,100914.47
2018-07-05T16:11:37.466Z,100922.76
2018-07-05T16:14:17.709Z,100914.48
2018-07-05T16:16:58.078Z,100908.13
2018-07-05T16:19:38.338Z,100910.08
2018-07-05T16:22:18.588Z,100906.59
2018-07-05T16:24:58.758Z,100911.91
2018-07-05T16:27:38.946Z,100907.64
2018-07-05T16:30:19.350Z,100910.36
2018-07-05T16:32:59.760Z,100912.27
2018-07-05T16:35:40.044Z,100911.68
2018-07-05T16:38:20.367Z,100909.38
2018-07-05T16:41:00.737Z,100908.44
2018-07-05T16:43:41.149Z,100901.13
2018-07-05T16:46:21.443Z,100898.17
2018-07-05T16:49:01.782Z,100895.45
2018-07-05T16:51:42.139Z,100890.75
2018-07-05T16:54:22.543Z,100896.45
2018-07-05T16:57:02.718Z,100905.86
2018-07-05T16:59:42.941Z,100894.70
2018-07-05T17:02:23.057Z,100904.26
2018-07-05T17:05:03.522Z,100895.31
2018-07-05T17:07:44.026Z,100894.58
2018-07-05T17:10:24.223Z,100892.60
2018-07-05T17:13:04.459Z,100894.83
2018-07-05T17:15:44.878Z,100892.11
2018-07-05T17:18:25.173Z,100892.25
2018-07-05T17:21:05.433Z,100890.77
2018-07-05T17:23:45.696Z,100898.27
2018-07-05T17:26:26.164Z,100895.81
2018-07-05T17:29:06.309Z,100893.84
2018-07-05T17:31:46.881Z,100897.91
2018-07-05T17:34:27.301Z,100895.20
2018-07-05T17:37:07.533Z,100898.41
2018-07-05T17:39:47.883Z,100897.91
2018-07-05T17:42:28.209Z,100895.44
2018-07-05T17:45:08.507Z,100898.98
2018-07-05T17:47:48.944Z,100891.17
2018-07-05T17:50:29.322Z,100903.56
2018-07-05T17:53:09.624Z,100902.71
2018-07-05T17:55:49.772Z,100906.78
2018-07-05T17:58:30.103Z,100906.62
2018-07-05T18:01:10.416Z,100910.68
2018-07-05T18:03:50.610Z,100912.25
2018-07-05T18:06:30.920Z,100911.08
2018-07-05T18:09:11.232Z,100910.43
2018-07-05T18:11:51.559Z,100917.56
2018-07-05T18:14:31.774Z,100913.47
2018-07-05T18:17:12.199Z,100915.84
2018-07-05T18:19:52.574Z,100923.27
2018-07-05T18:22:32.965Z,100921.77
2018-07-05T18:25:13.184Z,100922.59
2018-07-05T18:27:53.334Z,100932.25
2018-07-05T18:30:33.534Z,100926.67
2018-07-05T18:33:13.858Z,100926.16
2018-07-05T18:35:54.204Z,100928.17
2018-07-05T18:38:34.499Z,100927.83
2018-07-05T18:41:14.762Z,100932.41
2018-07-05T18:43:55.112Z,100937.95
2018-07-05T18:46:35.464Z,100939.97
2018-07-05T18:49:15.720Z,100937.63
2018-07-05T18:51:55.879Z,100936.61
2018-07-05T18:54:36.233Z,100948.36
2018-07-05T18:57:16.393Z,100951.59
2018-07-05T18:59:56.726Z,100947.34
2018-07-05T19:02:37.141Z,100956.25
2018-07-05T19:05:17.276Z,100955.59
2018-07-05T19:07:57.336Z,100958.05
2018-07-05T19:10:37.848Z,100955.84
2018-07-05T19:13:18.209Z,100960.05
2018-07-05T19:15:58.444Z,100965.63
2018-07-05T19:18:38.673Z,100969.14
2018-07-05T19:21:18.929Z,100969.95
2018-07-05T19:23:59.477Z,100969.09
2018-07-05T19:26:39.960Z,100975.77
2018-07-05T19:29:20.284Z,100978.80
2018-07-05T19:32:00.434Z,100980.78
2018-07-05T19:34:40.890Z,100986.18
2018-07-05T19:37:21.252Z,100990.50
2018-07-05T19:40:01.445Z,100996.77
2018-07-05T19:42:41.673Z,100994.54
2018-07-05T19:45:21.967Z,101000.26
2018-07-05T19:48:02.300Z,101005.83
2018-07-05T19:50:42.572Z,101011.17
2018-07-05T19:53:22.925Z,101017.85
2018-07-05T19:56:03.307Z,101031.17
2018-07-05T19:58:43.848Z,101031.30
2018-07-05T20:01:24.313Z,101041.33
2018-07-05T20:04:04.520Z,101045.97
2018-07-05T20:06:45.243Z,101052.20
2018-07-05T20:09:25.891Z,101055.39
2018-07-05T20:12:07.312Z,101056.31
2018-07-05T20:14:47.990Z,101055.76
2018-07-05T20:17:28.376Z,101058.28
2018-07-05T20:20:08.749Z,101066.20
2018-07-05T20:22:49.209Z,101068.89
2018-07-05T20:25:29.463Z,101073.34
2018-07-05T20:28:10.000Z,101079.67
2018-07-05T20:30:50.407Z,101081.32
2018-07-05T20:33:30.751Z,101080.46
2018-07-05T20:36:10.948Z,101086.56
2018-07-05T20:38:51.328Z,101095.91
2018-07-05T20:41:31.686Z,101100.53
2018-07-05T20:44:12.019Z,101098.42
2018-07-05T20:46:52.305Z,101106.86
2018-07-05T20:49:32.749Z,101114.43
2018-07-05T20:52:13.517Z,101115.30
2018-07-05T20:54:54.007Z,101115.36
2018-07-05T20:57:34.291Z,101121.75
2018-07-05T21:00:14.508Z,101119.20
2018-07-05T21:02:54.904Z,101125.01
2018-07-05T21:05:35.215Z,101123.86
2018-07-05T21:08:15.731Z,101133.86
2018-07-05T21:10:56.265Z,101133.70
2018-07-05T21:13:36.528Z,101135.99
2018-07-05T21:16:16.968Z,101143.55
2018-07-05T21:18:57.414Z,101142.77
2018-07-05T21:21:37.655Z,101140.58
2018-07-05T21:24:17.774Z,101144.67
2018-07-05T21:26:58.173Z,101141.83
2018-07-05T21:29:38.599Z,101146.38
2018-07-05T21:32:18.941Z,101143.67
2018-07-05T21:34:59.287Z,101145.16
2018-07-05T21:37:39.596Z,101146.88
2018-07-05T21:40:19.840Z,101154.77
2018-07-05T21:43:00.181Z,101160.70
2018-07-05T21:45:40.408Z,101158.12
2018-07-05T21:48:20.752Z,101164.60
2018-07-05T21:51:00.944Z,101168.39
2018-07-05T21:53:41.269Z,101170.88
2018-07-05T21:56:21.554Z,101176.66
2018-07-05T21:59:01.770Z,101177.45
2018-07-05T22:01:42.084Z,101182.61
2018-07-05T22:04:22.282Z,101184.23
2018-07-05T22:07:02.504Z,101188.07
2018-07-05T22:09:42.861Z,101191.38
2018-07-05T22:12:23.093Z,101195.46
2018-07-05T22:15:03.226Z,101198.36
2018-07-05T22:17:48.896Z,101183.38
2018-07-05T22:20:34.783Z,101199.55
2018-07-05T22:23:20.578Z,101194.91
2018-07-05T22:26:06.386Z,101199.00
2018-07-05T22:28:52.375Z,101206.77
2018-07-05T22:31:33.848Z,101198.38
2018-07-05T22:34:14.539Z,101205.88
2018-07-05T22:36:54.955Z,101201.86
2018-07-05T22:39:35.289Z,101212.25
2018-07-05T22:42:15.513Z,101214.11
2018-07-05T22:44:55.861Z,101213.11
2018-07-05T22:47:36.180Z,101219.83
2018-07-05T22:50:16.350Z,101211.73
2018-07-05T22:52:56.789Z,101214.06
2018-07-05T22:55:37.051Z,101216.27
2018-07-05T22:58:17.363Z,101219.78
2018-07-05T23:00:58.287Z,101226.49
2018-07-05T23:03:38.942Z,101226.27
2018-07-05T23:06:19.222Z,101229.55
2018-07-05T23:08:59.606Z,101239.20
2018-07-05T23:11:40.065Z,101243.73
2018-07-05T23:14:20.476Z,101252.87
2018-07-05T23:17:01.116Z,101247.91
2018-07-05T23:19:42.148Z,101246.56
2018-07-05T23:22:23.004Z,101242.43
2018-07-05T23:25:03.352Z,101245.97
2018-07-05T23:27:43.787Z,101244.38
2018-07-05T23:30:24.068Z,101243.77
2018-07-05T23:33:04.377Z,101244.02
2018-07-05T23:35:44.773Z,101244.86
2018-07-05T23:38:25.094Z,101244.41
2018-07-05T23:41:05.289Z,101241.59
2018-07-05T23:43:45.752Z,101251.34
2018-07-05T23:46:26.123Z,101250.35
2018-07-05T23:49:06.502Z,101257.06
2018-07-05T23:51:46.913Z,101253.30
2018-07-05T23:54:27.232Z,101258.52
2018-07-05T23:57:07.608Z,101255.01
2018-07-05T23:59:48.181Z,101263.17
